sensor_id;sensor_type;location;lat;lon;timestamp;temperature;humidity
47310;DHT22;33046;52.270;6.832;2024-03-07T00:00:12;8.60;99.90
47310;DHT22;33046;52.270;6.832;2024-03-07T00:02:19;8.60;99.90
47310;DHT22;33046;52.270;6.832;2024-03-07T00:04:27;8.50;99.90
47310;DHT22;33046;52.270;6.832;2024-03-07T00:06:34;8.50;99.90
47310;DHT22;33046;52.270;6.832;2024-03-07T00:08:41;8.50;99.90
47310;DHT22;33046;52.270;6.832;2024-03-07T00:10:48;8.50;99.90
47310;DHT22;33046;52.270;6.832;2024-03-07T00:12:55;8.50;99.90
47310;DHT22;33046;52.270;6.832;2024-03-07T00:15:02;8.40;99.90
47310;DHT22;33046;52.270;6.832;2024-03-07T00:17:09;8.40;99.90
47310;DHT22;33046;52.270;6.832;2024-03-07T00:19:16;8.40;99.90
47310;DHT22;33046;52.270;6.832;2024-03-07T00:21:24;8.30;99.90
47310;DHT22;33046;52.270;6.832;2024-03-07T00:23:31;8.30;99.90
47310;DHT22;33046;52.270;6.832;2024-03-07T00:25:37;8.30;99.90
47310;DHT22;33046;52.270;6.832;2024-03-07T00:27:44;8.30;99.90
47310;DHT22;33046;52.270;6.832;2024-03-07T00:29:51;8.20;99.90
47310;DHT22;33046;52.270;6.832;2024-03-07T00:31:58;8.20;99.90
47310;DHT22;33046;52.270;6.832;2024-03-07T00:34:05;8.20;99.90
47310;DHT22;33046;52.270;6.832;2024-03-07T00:36:15;8.20;99.90
47310;DHT22;33046;52.270;6.832;2024-03-07T00:38:23;8.20;99.90
47310;DHT22;33046;52.270;6.832;2024-03-07T00:40:30;8.20;99.90
47310;DHT22;33046;52.270;6.832;2024-03-07T00:42:37;8.20;99.90
47310;DHT22;33046;52.270;6.832;2024-03-07T00:44:44;8.10;99.90
47310;DHT22;33046;52.270;6.832;2024-03-07T00:46:51;8.10;99.90
47310;DHT22;33046;52.270;6.832;2024-03-07T00:48:58;8.10;99.90
47310;DHT22;33046;52.270;6.832;2024-03-07T00:51:07;8.10;99.90
47310;DHT22;33046;52.270;6.832;2024-03-07T00:53:14;8.00;99.90
47310;DHT22;33046;52.270;6.832;2024-03-07T00:55:22;7.90;99.90
47310;DHT22;33046;52.270;6.832;2024-03-07T00:57:30;7.90;99.90
47310;DHT22;33046;52.270;6.832;2024-03-07T00:59:36;7.90;99.90
47310;DHT22;33046;52.270;6.832;2024-03-07T01:01:43;7.90;99.90
47310;DHT22;33046;52.270;6.832;2024-03-07T01:03:50;7.80;99.90
47310;DHT22;33046;52.270;6.832;2024-03-07T01:05:57;7.80;99.90
47310;DHT22;33046;52.270;6.832;2024-03-07T01:08:05;7.80;99.90
47310;DHT22;33046;52.270;6.832;2024-03-07T01:10:12;7.80;99.90
47310;DHT22;33046;52.270;6.832;2024-03-07T01:12:21;7.80;99.90
47310;DHT22;33046;52.270;6.832;2024-03-07T01:14:27;7.80;99.90
47310;DHT22;33046;52.270;6.832;2024-03-07T01:16:34;7.70;99.90
47310;DHT22;33046;52.270;6.832;2024-03-07T01:18:41;7.70;99.90
47310;DHT22;33046;52.270;6.832;2024-03-07T01:20:48;7.70;99.90
47310;DHT22;33046;52.270;6.832;2024-03-07T01:22:55;7.70;99.90
47310;DHT22;33046;52.270;6.832;2024-03-07T01:25:02;7.70;99.90
47310;DHT22;33046;52.270;6.832;2024-03-07T01:27:08;7.60;99.90
47310;DHT22;33046;52.270;6.832;2024-03-07T01:29:17;7.60;99.90
47310;DHT22;33046;52.270;6.832;2024-03-07T01:31:24;7.60;99.90
47310;DHT22;33046;52.270;6.832;2024-03-07T01:33:31;7.60;99.90
47310;DHT22;33046;52.270;6.832;2024-03-07T01:35:38;7.60;99.90
47310;DHT22;33046;52.270;6.832;2024-03-07T01:37:44;7.60;99.90
47310;DHT22;33046;52.270;6.832;2024-03-07T01:39:51;7.50;99.90
47310;DHT22;33046;52.270;6.832;2024-03-07T01:41:58;7.50;99.90
47310;DHT22;33046;52.270;6.832;2024-03-07T01:44:05;7.50;99.90
47310;DHT22;33046;52.270;6.832;2024-03-07T01:46:13;7.50;99.90
47310;DHT22;33046;52.270;6.832;2024-03-07T01:48:26;7.50;99.90
47310;DHT22;33046;52.270;6.832;2024-03-07T01:50:34;7.50;99.90
47310;DHT22;33046;52.270;6.832;2024-03-07T01:52:41;7.40;99.90
47310;DHT22;33046;52.270;6.832;2024-03-07T01:54:49;7.40;99.90
47310;DHT22;33046;52.270;6.832;2024-03-07T01:56:56;7.40;99.90
47310;DHT22;33046;52.270;6.832;2024-03-07T01:59:03;7.40;99.90
47310;DHT22;33046;52.270;6.832;2024-03-07T02:01:13;7.40;99.90
47310;DHT22;33046;52.270;6.832;2024-03-07T02:03:23;7.40;99.90
47310;DHT22;33046;52.270;6.832;2024-03-07T02:05:30;7.30;99.90
47310;DHT22;33046;52.270;6.832;2024-03-07T02:07:37;7.30;99.90
47310;DHT22;33046;52.270;6.832;2024-03-07T02:09:44;7.30;99.90
47310;DHT22;33046;52.270;6.832;2024-03-07T02:11:50;7.30;99.90
47310;DHT22;33046;52.270;6.832;2024-03-07T02:13:57;7.30;99.90
47310;DHT22;33046;52.270;6.832;2024-03-07T02:16:05;7.30;99.90
47310;DHT22;33046;52.270;6.832;2024-03-07T02:18:13;7.30;99.90
47310;DHT22;33046;52.270;6.832;2024-03-07T02:20:20;7.30;99.90
47310;DHT22;33046;52.270;6.832;2024-03-07T02:22:28;7.20;99.90
47310;DHT22;33046;52.270;6.832;2024-03-07T02:24:35;7.30;99.90
47310;DHT22;33046;52.270;6.832;2024-03-07T02:26:42;7.30;99.90
47310;DHT22;33046;52.270;6.832;2024-03-07T02:28:49;7.20;99.90
47310;DHT22;33046;52.270;6.832;2024-03-07T02:30:56;7.20;99.90
47310;DHT22;33046;52.270;6.832;2024-03-07T02:33:03;7.20;99.90
47310;DHT22;33046;52.270;6.832;2024-03-07T02:35:11;7.20;99.90
47310;DHT22;33046;52.270;6.832;2024-03-07T02:37:17;7.20;99.90
47310;DHT22;33046;52.270;6.832;2024-03-07T02:39:26;7.20;99.90
47310;DHT22;33046;52.270;6.832;2024-03-07T02:41:33;7.30;99.90
47310;DHT22;33046;52.270;6.832;2024-03-07T02:43:39;7.30;99.90
47310;DHT22;33046;52.270;6.832;2024-03-07T02:45:46;7.20;99.90
47310;DHT22;33046;52.270;6.832;2024-03-07T02:47:53;7.30;99.90
47310;DHT22;33046;52.270;6.832;2024-03-07T02:50:00;7.30;99.90
47310;DHT22;33046;52.270;6.832;2024-03-07T02:52:07;7.30;99.90
47310;DHT22;33046;52.270;6.832;2024-03-07T02:54:14;7.30;99.90
47310;DHT22;33046;52.270;6.832;2024-03-07T02:56:22;7.30;99.90
47310;DHT22;33046;52.270;6.832;2024-03-07T02:58:29;7.20;99.90
47310;DHT22;33046;52.270;6.832;2024-03-07T03:00:36;7.20;99.90
47310;DHT22;33046;52.270;6.832;2024-03-07T03:02:42;7.20;99.90
47310;DHT22;33046;52.270;6.832;2024-03-07T03:04:49;7.20;99.90
47310;DHT22;33046;52.270;6.832;2024-03-07T03:06:56;7.10;99.90
47310;DHT22;33046;52.270;6.832;2024-03-07T03:09:03;7.10;99.90
47310;DHT22;33046;52.270;6.832;2024-03-07T03:11:10;7.10;99.90
47310;DHT22;33046;52.270;6.832;2024-03-07T03:13:18;7.10;99.90
47310;DHT22;33046;52.270;6.832;2024-03-07T03:15:25;7.10;99.90
47310;DHT22;33046;52.270;6.832;2024-03-07T03:17:32;7.10;99.90
47310;DHT22;33046;52.270;6.832;2024-03-07T03:19:38;7.10;99.90
47310;DHT22;33046;52.270;6.832;2024-03-07T03:21:45;7.10;99.90
47310;DHT22;33046;52.270;6.832;2024-03-07T03:23:52;7.00;99.90
47310;DHT22;33046;52.270;6.832;2024-03-07T03:25:59;7.00;99.90
47310;DHT22;33046;52.270;6.832;2024-03-07T03:28:06;7.00;99.90
47310;DHT22;33046;52.270;6.832;2024-03-07T03:30:14;7.00;99.90
47310;DHT22;33046;52.270;6.832;2024-03-07T03:32:21;7.00;99.90
47310;DHT22;33046;52.270;6.832;2024-03-07T03:34:28;6.90;99.90
47310;DHT22;33046;52.270;6.832;2024-03-07T03:36:35;6.90;99.90
47310;DHT22;33046;52.270;6.832;2024-03-07T03:38:42;6.90;99.90
47310;DHT22;33046;52.270;6.832;2024-03-07T03:40:49;6.90;99.90
47310;DHT22;33046;52.270;6.832;2024-03-07T03:42:55;6.90;99.90
47310;DHT22;33046;52.270;6.832;2024-03-07T03:45:03;6.90;99.90
47310;DHT22;33046;52.270;6.832;2024-03-07T03:47:11;6.80;99.90
47310;DHT22;33046;52.270;6.832;2024-03-07T03:49:18;6.80;99.90
47310;DHT22;33046;52.270;6.832;2024-03-07T03:51:25;6.80;99.90
47310;DHT22;33046;52.270;6.832;2024-03-07T03:53:32;6.80;99.90
47310;DHT22;33046;52.270;6.832;2024-03-07T03:55:39;6.80;99.90
47310;DHT22;33046;52.270;6.832;2024-03-07T03:57:46;6.80;99.90
47310;DHT22;33046;52.270;6.832;2024-03-07T03:59:52;6.70;99.90
47310;DHT22;33046;52.270;6.832;2024-03-07T04:01:59;6.70;99.90
47310;DHT22;33046;52.270;6.832;2024-03-07T04:04:07;6.70;99.90
47310;DHT22;33046;52.270;6.832;2024-03-07T04:06:14;6.70;99.90
47310;DHT22;33046;52.270;6.832;2024-03-07T04:08:21;6.70;99.90
47310;DHT22;33046;52.270;6.832;2024-03-07T04:10:28;6.60;99.90
47310;DHT22;33046;52.270;6.832;2024-03-07T04:12:36;6.60;99.90
47310;DHT22;33046;52.270;6.832;2024-03-07T04:14:43;6.60;99.90
47310;DHT22;33046;52.270;6.832;2024-03-07T04:16:50;6.60;99.90
47310;DHT22;33046;52.270;6.832;2024-03-07T04:18:57;6.60;99.90
47310;DHT22;33046;52.270;6.832;2024-03-07T04:21:05;6.60;99.90
47310;DHT22;33046;52.270;6.832;2024-03-07T04:23:12;6.60;99.90
47310;DHT22;33046;52.270;6.832;2024-03-07T04:25:19;6.60;99.90
47310;DHT22;33046;52.270;6.832;2024-03-07T04:27:26;6.50;99.90
47310;DHT22;33046;52.270;6.832;2024-03-07T04:29:34;6.50;99.90
47310;DHT22;33046;52.270;6.832;2024-03-07T04:31:41;6.50;99.90
47310;DHT22;33046;52.270;6.832;2024-03-07T04:33:47;6.50;99.90
47310;DHT22;33046;52.270;6.832;2024-03-07T04:35:54;6.40;99.90
47310;DHT22;33046;52.270;6.832;2024-03-07T04:38:03;6.40;99.90
47310;DHT22;33046;52.270;6.832;2024-03-07T04:40:10;6.40;99.90
47310;DHT22;33046;52.270;6.832;2024-03-07T04:42:17;6.40;99.90
47310;DHT22;33046;52.270;6.832;2024-03-07T04:44:24;6.40;99.90
47310;DHT22;33046;52.270;6.832;2024-03-07T04:46:31;6.40;99.90
47310;DHT22;33046;52.270;6.832;2024-03-07T04:48:37;6.40;99.90
47310;DHT22;33046;52.270;6.832;2024-03-07T04:50:44;6.40;99.90
47310;DHT22;33046;52.270;6.832;2024-03-07T04:52:51;6.40;99.90
47310;DHT22;33046;52.270;6.832;2024-03-07T04:54:59;6.40;99.90
47310;DHT22;33046;52.270;6.832;2024-03-07T04:57:06;6.40;99.90
47310;DHT22;33046;52.270;6.832;2024-03-07T04:59:13;6.40;99.90
47310;DHT22;33046;52.270;6.832;2024-03-07T05:01:20;6.40;99.90
47310;DHT22;33046;52.270;6.832;2024-03-07T05:03:27;6.30;99.90
47310;DHT22;33046;52.270;6.832;2024-03-07T05:05:34;6.40;99.90
47310;DHT22;33046;52.270;6.832;2024-03-07T05:07:41;6.30;99.90
47310;DHT22;33046;52.270;6.832;2024-03-07T05:09:48;6.30;99.90
47310;DHT22;33046;52.270;6.832;2024-03-07T05:11:56;6.30;99.90
47310;DHT22;33046;52.270;6.832;2024-03-07T05:14:03;6.30;99.90
47310;DHT22;33046;52.270;6.832;2024-03-07T05:16:10;6.30;99.90
47310;DHT22;33046;52.270;6.832;2024-03-07T05:18:16;6.30;99.90
47310;DHT22;33046;52.270;6.832;2024-03-07T05:20:23;6.30;99.90
47310;DHT22;33046;52.270;6.832;2024-03-07T05:22:30;6.20;99.90
47310;DHT22;33046;52.270;6.832;2024-03-07T05:24:37;6.30;99.90
47310;DHT22;33046;52.270;6.832;2024-03-07T05:26:44;6.20;99.90
47310;DHT22;33046;52.270;6.832;2024-03-07T05:28:52;6.20;99.90
47310;DHT22;33046;52.270;6.832;2024-03-07T05:30:59;6.20;99.90
47310;DHT22;33046;52.270;6.832;2024-03-07T05:33:06;6.20;99.90
47310;DHT22;33046;52.270;6.832;2024-03-07T05:35:13;6.20;99.90
47310;DHT22;33046;52.270;6.832;2024-03-07T05:37:20;6.20;99.90
47310;DHT22;33046;52.270;6.832;2024-03-07T05:39:27;6.20;99.90
47310;DHT22;33046;52.270;6.832;2024-03-07T05:41:33;6.10;99.90
47310;DHT22;33046;52.270;6.832;2024-03-07T05:43:40;6.10;99.90
47310;DHT22;33046;52.270;6.832;2024-03-07T05:45:48;6.10;99.90
47310;DHT22;33046;52.270;6.832;2024-03-07T05:47:55;6.10;99.90
47310;DHT22;33046;52.270;6.832;2024-03-07T05:50:03;6.10;99.90
47310;DHT22;33046;52.270;6.832;2024-03-07T05:52:10;6.10;99.90
47310;DHT22;33046;52.270;6.832;2024-03-07T05:54:16;6.10;99.90
47310;DHT22;33046;52.270;6.832;2024-03-07T05:56:23;6.00;99.90
47310;DHT22;33046;52.270;6.832;2024-03-07T05:58:30;6.00;99.90
47310;DHT22;33046;52.270;6.832;2024-03-07T06:00:37;6.00;99.90
47310;DHT22;33046;52.270;6.832;2024-03-07T06:02:45;6.00;99.90
47310;DHT22;33046;52.270;6.832;2024-03-07T06:04:52;6.00;99.90
47310;DHT22;33046;52.270;6.832;2024-03-07T06:06:59;6.00;99.90
47310;DHT22;33046;52.270;6.832;2024-03-07T06:09:08;6.00;99.90
47310;DHT22;33046;52.270;6.832;2024-03-07T06:11:15;6.00;99.90
47310;DHT22;33046;52.270;6.832;2024-03-07T06:13:22;5.90;99.90
47310;DHT22;33046;52.270;6.832;2024-03-07T06:15:29;6.00;99.90
47310;DHT22;33046;52.270;6.832;2024-03-07T06:17:36;6.00;99.90
47310;DHT22;33046;52.270;6.832;2024-03-07T06:19:44;5.90;99.90
47310;DHT22;33046;52.270;6.832;2024-03-07T06:21:51;5.90;99.90
47310;DHT22;33046;52.270;6.832;2024-03-07T06:23:57;5.80;99.90
47310;DHT22;33046;52.270;6.832;2024-03-07T06:26:04;5.80;99.90
47310;DHT22;33046;52.270;6.832;2024-03-07T06:28:11;5.80;99.90
47310;DHT22;33046;52.270;6.832;2024-03-07T06:30:18;5.80;99.90
47310;DHT22;33046;52.270;6.832;2024-03-07T06:32:25;5.80;99.90
47310;DHT22;33046;52.270;6.832;2024-03-07T06:34:32;5.80;99.90
47310;DHT22;33046;52.270;6.832;2024-03-07T06:36:40;5.80;99.90
47310;DHT22;33046;52.270;6.832;2024-03-07T06:38:47;5.80;99.90
47310;DHT22;33046;52.270;6.832;2024-03-07T06:40:54;5.80;99.90
47310;DHT22;33046;52.270;6.832;2024-03-07T06:43:01;5.80;99.90
47310;DHT22;33046;52.270;6.832;2024-03-07T06:45:08;5.70;99.90
47310;DHT22;33046;52.270;6.832;2024-03-07T06:47:15;5.80;99.90
47310;DHT22;33046;52.270;6.832;2024-03-07T06:49:22;5.80;99.90
47310;DHT22;33046;52.270;6.832;2024-03-07T06:51:29;5.80;99.90
47310;DHT22;33046;52.270;6.832;2024-03-07T06:53:37;5.80;99.90
47310;DHT22;33046;52.270;6.832;2024-03-07T06:55:44;5.80;99.90
47310;DHT22;33046;52.270;6.832;2024-03-07T06:57:51;5.80;99.90
47310;DHT22;33046;52.270;6.832;2024-03-07T06:59:57;5.80;99.90
47310;DHT22;33046;52.270;6.832;2024-03-07T07:02:05;5.80;99.90
47310;DHT22;33046;52.270;6.832;2024-03-07T07:04:12;5.80;99.90
47310;DHT22;33046;52.270;6.832;2024-03-07T07:06:18;5.90;99.90
47310;DHT22;33046;52.270;6.832;2024-03-07T07:08:25;5.90;99.90
47310;DHT22;33046;52.270;6.832;2024-03-07T07:10:34;5.90;99.90
47310;DHT22;33046;52.270;6.832;2024-03-07T07:12:41;5.90;99.90
47310;DHT22;33046;52.270;6.832;2024-03-07T07:14:48;5.90;99.90
47310;DHT22;33046;52.270;6.832;2024-03-07T07:16:55;6.00;99.90
47310;DHT22;33046;52.270;6.832;2024-03-07T07:19:02;6.00;99.90
47310;DHT22;33046;52.270;6.832;2024-03-07T07:21:09;6.00;99.90
47310;DHT22;33046;52.270;6.832;2024-03-07T07:23:16;6.00;99.90
47310;DHT22;33046;52.270;6.832;2024-03-07T07:25:22;6.10;99.90
47310;DHT22;33046;52.270;6.832;2024-03-07T07:27:31;6.10;99.90
47310;DHT22;33046;52.270;6.832;2024-03-07T07:29:38;6.10;99.90
47310;DHT22;33046;52.270;6.832;2024-03-07T07:31:45;6.10;99.90
47310;DHT22;33046;52.270;6.832;2024-03-07T07:33:52;6.10;99.90
47310;DHT22;33046;52.270;6.832;2024-03-07T07:35:59;6.10;99.90
47310;DHT22;33046;52.270;6.832;2024-03-07T07:38:05;6.20;99.90
47310;DHT22;33046;52.270;6.832;2024-03-07T07:40:13;6.20;99.90
47310;DHT22;33046;52.270;6.832;2024-03-07T07:42:20;6.20;99.90
47310;DHT22;33046;52.270;6.832;2024-03-07T07:44:29;6.30;99.90
47310;DHT22;33046;52.270;6.832;2024-03-07T07:46:35;6.30;99.90
47310;DHT22;33046;52.270;6.832;2024-03-07T07:48:42;6.30;99.90
47310;DHT22;33046;52.270;6.832;2024-03-07T07:50:49;6.40;99.90
47310;DHT22;33046;52.270;6.832;2024-03-07T07:52:57;6.40;99.90
47310;DHT22;33046;52.270;6.832;2024-03-07T07:55:05;6.50;99.90
47310;DHT22;33046;52.270;6.832;2024-03-07T07:57:12;6.50;99.90
47310;DHT22;33046;52.270;6.832;2024-03-07T07:59:19;6.60;99.90
47310;DHT22;33046;52.270;6.832;2024-03-07T08:01:27;6.60;99.90
47310;DHT22;33046;52.270;6.832;2024-03-07T08:03:34;6.70;99.90
47310;DHT22;33046;52.270;6.832;2024-03-07T08:05:41;6.70;99.90
47310;DHT22;33046;52.270;6.832;2024-03-07T08:07:48;6.70;99.90
47310;DHT22;33046;52.270;6.832;2024-03-07T08:09:56;6.70;99.90
47310;DHT22;33046;52.270;6.832;2024-03-07T08:12:03;6.80;99.90
47310;DHT22;33046;52.270;6.832;2024-03-07T08:14:10;6.80;99.90
47310;DHT22;33046;52.270;6.832;2024-03-07T08:16:16;6.80;99.90
47310;DHT22;33046;52.270;6.832;2024-03-07T08:18:25;6.80;99.90
47310;DHT22;33046;52.270;6.832;2024-03-07T08:20:32;6.90;99.90
47310;DHT22;33046;52.270;6.832;2024-03-07T08:22:39;6.90;99.90
47310;DHT22;33046;52.270;6.832;2024-03-07T08:24:46;7.00;99.90
47310;DHT22;33046;52.270;6.832;2024-03-07T08:26:53;6.90;99.90
47310;DHT22;33046;52.270;6.832;2024-03-07T08:28:59;7.00;99.90
47310;DHT22;33046;52.270;6.832;2024-03-07T08:31:06;7.00;99.90
47310;DHT22;33046;52.270;6.832;2024-03-07T08:33:13;7.00;99.90
47310;DHT22;33046;52.270;6.832;2024-03-07T08:35:22;7.10;99.90
47310;DHT22;33046;52.270;6.832;2024-03-07T08:37:29;7.10;99.90
47310;DHT22;33046;52.270;6.832;2024-03-07T08:39:35;7.10;99.90
47310;DHT22;33046;52.270;6.832;2024-03-07T08:41:42;7.10;99.90
47310;DHT22;33046;52.270;6.832;2024-03-07T08:43:49;7.10;99.90
47310;DHT22;33046;52.270;6.832;2024-03-07T08:45:56;7.10;99.90
47310;DHT22;33046;52.270;6.832;2024-03-07T08:48:04;7.10;99.90
47310;DHT22;33046;52.270;6.832;2024-03-07T08:50:12;7.20;99.90
47310;DHT22;33046;52.270;6.832;2024-03-07T08:52:20;7.20;99.90
47310;DHT22;33046;52.270;6.832;2024-03-07T08:54:27;7.20;99.90
47310;DHT22;33046;52.270;6.832;2024-03-07T08:56:34;7.20;99.90
47310;DHT22;33046;52.270;6.832;2024-03-07T08:58:41;7.20;99.90
47310;DHT22;33046;52.270;6.832;2024-03-07T09:00:48;7.20;99.90
47310;DHT22;33046;52.270;6.832;2024-03-07T09:02:56;7.20;99.90
47310;DHT22;33046;52.270;6.832;2024-03-07T09:05:03;7.20;99.90
47310;DHT22;33046;52.270;6.832;2024-03-07T09:07:11;7.20;99.90
47310;DHT22;33046;52.270;6.832;2024-03-07T09:09:19;7.20;99.90
47310;DHT22;33046;52.270;6.832;2024-03-07T09:11:26;7.30;99.90
47310;DHT22;33046;52.270;6.832;2024-03-07T09:13:32;7.30;99.90
47310;DHT22;33046;52.270;6.832;2024-03-07T09:15:39;7.20;99.90
47310;DHT22;33046;52.270;6.832;2024-03-07T09:17:46;7.30;99.90
47310;DHT22;33046;52.270;6.832;2024-03-07T09:19:53;7.30;99.90
47310;DHT22;33046;52.270;6.832;2024-03-07T09:22:00;7.30;99.90
47310;DHT22;33046;52.270;6.832;2024-03-07T09:24:07;7.40;99.90
47310;DHT22;33046;52.270;6.832;2024-03-07T09:26:15;7.30;99.90
47310;DHT22;33046;52.270;6.832;2024-03-07T09:28:22;7.30;99.90
47310;DHT22;33046;52.270;6.832;2024-03-07T09:30:28;7.40;99.90
47310;DHT22;33046;52.270;6.832;2024-03-07T09:32:35;7.40;99.90
47310;DHT22;33046;52.270;6.832;2024-03-07T09:34:42;7.40;99.90
47310;DHT22;33046;52.270;6.832;2024-03-07T09:36:49;7.40;99.90
47310;DHT22;33046;52.270;6.832;2024-03-07T09:38:56;7.40;99.90
47310;DHT22;33046;52.270;6.832;2024-03-07T09:41:03;7.40;99.90
47310;DHT22;33046;52.270;6.832;2024-03-07T09:43:12;7.40;99.90
47310;DHT22;33046;52.270;6.832;2024-03-07T09:45:20;7.50;99.90
47310;DHT22;33046;52.270;6.832;2024-03-07T09:47:30;7.50;99.90
47310;DHT22;33046;52.270;6.832;2024-03-07T09:49:37;7.50;99.90
47310;DHT22;33046;52.270;6.832;2024-03-07T09:51:47;7.60;99.90
47310;DHT22;33046;52.270;6.832;2024-03-07T09:53:56;7.60;99.90
47310;DHT22;33046;52.270;6.832;2024-03-07T09:56:06;7.70;99.90
47310;DHT22;33046;52.270;6.832;2024-03-07T09:58:18;7.70;99.90
47310;DHT22;33046;52.270;6.832;2024-03-07T10:00:25;7.80;99.90
47310;DHT22;33046;52.270;6.832;2024-03-07T10:02:36;7.80;99.90
47310;DHT22;33046;52.270;6.832;2024-03-07T10:04:49;7.90;99.90
47310;DHT22;33046;52.270;6.832;2024-03-07T10:06:57;7.90;99.90
47310;DHT22;33046;52.270;6.832;2024-03-07T10:09:05;8.00;99.90
47310;DHT22;33046;52.270;6.832;2024-03-07T10:11:12;8.00;99.90
47310;DHT22;33046;52.270;6.832;2024-03-07T10:13:20;8.10;99.90
47310;DHT22;33046;52.270;6.832;2024-03-07T10:15:28;8.10;99.90
47310;DHT22;33046;52.270;6.832;2024-03-07T10:17:35;8.10;99.90
47310;DHT22;33046;52.270;6.832;2024-03-07T10:19:42;8.20;99.90
47310;DHT22;33046;52.270;6.832;2024-03-07T10:21:49;8.20;99.90
47310;DHT22;33046;52.270;6.832;2024-03-07T10:24:06;8.20;99.90
47310;DHT22;33046;52.270;6.832;2024-03-07T10:26:13;8.30;99.90
47310;DHT22;33046;52.270;6.832;2024-03-07T10:28:21;8.30;99.90
47310;DHT22;33046;52.270;6.832;2024-03-07T10:30:28;8.40;99.90
47310;DHT22;33046;52.270;6.832;2024-03-07T10:32:35;8.40;99.90
47310;DHT22;33046;52.270;6.832;2024-03-07T10:34:42;8.50;99.90
47310;DHT22;33046;52.270;6.832;2024-03-07T10:36:49;8.50;99.90
47310;DHT22;33046;52.270;6.832;2024-03-07T10:38:57;8.50;99.90
47310;DHT22;33046;52.270;6.832;2024-03-07T10:41:06;8.50;99.90
47310;DHT22;33046;52.270;6.832;2024-03-07T10:43:13;8.60;99.90
47310;DHT22;33046;52.270;6.832;2024-03-07T10:45:21;8.60;99.90
47310;DHT22;33046;52.270;6.832;2024-03-07T10:47:29;8.70;99.90
47310;DHT22;33046;52.270;6.832;2024-03-07T10:49:45;8.80;99.90
47310;DHT22;33046;52.270;6.832;2024-03-07T10:52:01;8.90;99.90
47310;DHT22;33046;52.270;6.832;2024-03-07T10:54:13;9.00;99.90
47310;DHT22;33046;52.270;6.832;2024-03-07T10:56:29;9.10;99.90
47310;DHT22;33046;52.270;6.832;2024-03-07T10:58:45;9.10;99.90
47310;DHT22;33046;52.270;6.832;2024-03-07T11:00:59;9.10;99.90
47310;DHT22;33046;52.270;6.832;2024-03-07T11:03:07;9.10;99.90
47310;DHT22;33046;52.270;6.832;2024-03-07T11:05:14;9.10;99.90
47310;DHT22;33046;52.270;6.832;2024-03-07T11:07:22;9.10;99.90
47310;DHT22;33046;52.270;6.832;2024-03-07T11:09:30;9.20;99.90
47310;DHT22;33046;52.270;6.832;2024-03-07T11:11:38;9.30;99.90
47310;DHT22;33046;52.270;6.832;2024-03-07T11:13:46;9.40;99.90
47310;DHT22;33046;52.270;6.832;2024-03-07T11:15:55;9.50;99.90
47310;DHT22;33046;52.270;6.832;2024-03-07T11:18:02;9.50;99.90
47310;DHT22;33046;52.270;6.832;2024-03-07T11:20:22;9.40;99.90
47310;DHT22;33046;52.270;6.832;2024-03-07T11:22:29;9.50;99.90
47310;DHT22;33046;52.270;6.832;2024-03-07T11:24:37;9.60;99.90
47310;DHT22;33046;52.270;6.832;2024-03-07T11:26:47;9.60;99.90
47310;DHT22;33046;52.270;6.832;2024-03-07T11:28:54;9.70;99.90
47310;DHT22;33046;52.270;6.832;2024-03-07T11:31:09;9.60;99.90
47310;DHT22;33046;52.270;6.832;2024-03-07T11:33:16;9.60;99.90
47310;DHT22;33046;52.270;6.832;2024-03-07T11:35:31;9.60;99.90
47310;DHT22;33046;52.270;6.832;2024-03-07T11:37:39;9.60;99.90
47310;DHT22;33046;52.270;6.832;2024-03-07T11:39:47;9.50;99.90
47310;DHT22;33046;52.270;6.832;2024-03-07T11:41:54;9.60;99.90
47310;DHT22;33046;52.270;6.832;2024-03-07T11:44:01;9.70;99.90
47310;DHT22;33046;52.270;6.832;2024-03-07T11:46:09;9.60;99.90
47310;DHT22;33046;52.270;6.832;2024-03-07T11:48:16;9.60;99.90
47310;DHT22;33046;52.270;6.832;2024-03-07T11:50:23;9.60;99.90
47310;DHT22;33046;52.270;6.832;2024-03-07T11:52:30;9.60;99.90
47310;DHT22;33046;52.270;6.832;2024-03-07T11:54:37;9.60;99.90
47310;DHT22;33046;52.270;6.832;2024-03-07T11:56:44;9.60;99.90
47310;DHT22;33046;52.270;6.832;2024-03-07T11:58:51;9.60;99.90
47310;DHT22;33046;52.270;6.832;2024-03-07T12:00:58;9.70;99.90
47310;DHT22;33046;52.270;6.832;2024-03-07T12:03:08;9.70;99.90
47310;DHT22;33046;52.270;6.832;2024-03-07T12:05:15;9.70;99.90
47310;DHT22;33046;52.270;6.832;2024-03-07T12:07:22;9.70;99.90
47310;DHT22;33046;52.270;6.832;2024-03-07T12:09:28;9.70;99.90
47310;DHT22;33046;52.270;6.832;2024-03-07T12:11:35;9.70;99.90
47310;DHT22;33046;52.270;6.832;2024-03-07T12:13:42;9.70;99.90
47310;DHT22;33046;52.270;6.832;2024-03-07T12:15:49;9.90;99.90
47310;DHT22;33046;52.270;6.832;2024-03-07T12:17:56;9.80;99.90
47310;DHT22;33046;52.270;6.832;2024-03-07T12:20:05;9.80;99.90
47310;DHT22;33046;52.270;6.832;2024-03-07T12:22:13;10.00;99.90
47310;DHT22;33046;52.270;6.832;2024-03-07T12:24:22;9.90;99.90
47310;DHT22;33046;52.270;6.832;2024-03-07T12:26:29;9.90;99.90
47310;DHT22;33046;52.270;6.832;2024-03-07T12:28:36;9.80;99.90
47310;DHT22;33046;52.270;6.832;2024-03-07T12:30:50;9.80;99.90
47310;DHT22;33046;52.270;6.832;2024-03-07T12:32:57;9.80;99.90
47310;DHT22;33046;52.270;6.832;2024-03-07T12:35:06;9.80;99.90
47310;DHT22;33046;52.270;6.832;2024-03-07T12:37:14;9.80;99.90
47310;DHT22;33046;52.270;6.832;2024-03-07T12:39:24;9.80;99.90
47310;DHT22;33046;52.270;6.832;2024-03-07T12:41:31;9.70;99.90
47310;DHT22;33046;52.270;6.832;2024-03-07T12:43:38;9.80;99.90
47310;DHT22;33046;52.270;6.832;2024-03-07T12:45:47;9.70;99.90
47310;DHT22;33046;52.270;6.832;2024-03-07T12:47:55;9.70;99.90
47310;DHT22;33046;52.270;6.832;2024-03-07T12:50:01;9.70;99.90
47310;DHT22;33046;52.270;6.832;2024-03-07T12:52:10;9.70;99.90
47310;DHT22;33046;52.270;6.832;2024-03-07T12:54:16;9.70;99.90
47310;DHT22;33046;52.270;6.832;2024-03-07T12:56:23;9.80;99.90
47310;DHT22;33046;52.270;6.832;2024-03-07T12:58:30;9.70;99.90
47310;DHT22;33046;52.270;6.832;2024-03-07T13:00:37;9.70;99.90
47310;DHT22;33046;52.270;6.832;2024-03-07T13:02:48;9.70;99.90
47310;DHT22;33046;52.270;6.832;2024-03-07T13:04:55;9.70;99.90
47310;DHT22;33046;52.270;6.832;2024-03-07T13:07:03;9.60;99.90
47310;DHT22;33046;52.270;6.832;2024-03-07T13:09:11;9.60;99.90
47310;DHT22;33046;52.270;6.832;2024-03-07T13:11:18;9.60;99.90
47310;DHT22;33046;52.270;6.832;2024-03-07T13:13:25;9.60;99.90
47310;DHT22;33046;52.270;6.832;2024-03-07T13:15:31;9.60;99.90
47310;DHT22;33046;52.270;6.832;2024-03-07T13:17:38;9.60;99.90
47310;DHT22;33046;52.270;6.832;2024-03-07T13:19:45;9.60;99.90
47310;DHT22;33046;52.270;6.832;2024-03-07T13:21:52;9.60;99.90
47310;DHT22;33046;52.270;6.832;2024-03-07T13:23:59;9.60;99.90
47310;DHT22;33046;52.270;6.832;2024-03-07T13:26:07;9.60;99.90
47310;DHT22;33046;52.270;6.832;2024-03-07T13:28:15;9.60;99.90
47310;DHT22;33046;52.270;6.832;2024-03-07T13:30:24;9.70;99.90
47310;DHT22;33046;52.270;6.832;2024-03-07T13:32:30;9.70;99.90
47310;DHT22;33046;52.270;6.832;2024-03-07T13:34:37;9.80;99.90
47310;DHT22;33046;52.270;6.832;2024-03-07T13:36:44;9.80;99.90